Time;durP1;ratioP1;P1;durP2;ratioP2;P2;SDS_P1;SDS_P2;PMS_P1;PMS_P2;Temp;Humidity;BMP_temperature;BMP_pressure;BME280_temperature;BME280_humidity;BME280_pressure;Samples;Min_cycle;Max_cycle;Signal;HPM_P1;HPM_P2
2021/10/10 00:01:21;;;;;;;108.93;98.45;;;;;;;6.88;100.00;102294.25;5120150;27;20119;-78
2021/10/10 00:03:48;;;;;;;114.15;104.07;;;;;;;6.88;100.00;102288.97;5124713;27;20103;-82
2021/10/10 00:06:16;;;;;;;110.57;100.93;;;;;;;7.03;100.00;102289.34;5116848;27;20108;-82
2021/10/10 00:08:43;;;;;;;95.85;86.18;;;;;;;6.97;100.00;102292.56;5119892;27;20108;-80
2021/10/10 00:11:10;;;;;;;102.60;93.75;;;;;;;6.88;100.00;102288.97;5122312;27;20104;-80
2021/10/10 00:13:36;;;;;;;109.35;99.72;;;;;;;6.96;100.00;102285.59;5121583;27;20113;-80
2021/10/10 00:16:03;;;;;;;105.57;96.40;;;;;;;6.96;100.00;102281.16;5122954;27;20047;-81
2021/10/10 00:18:30;;;;;;;101.65;92.50;;;;;;;6.93;100.00;102278.81;5124805;27;20468;-80
2021/10/10 00:20:57;;;;;;;100.95;91.95;;;;;;;6.87;100.00;102288.16;5119859;27;20044;-81
2021/10/10 00:23:25;;;;;;;104.32;95.53;;;;;;;6.92;100.00;102286.88;5107492;27;20450;-80
2021/10/10 00:25:52;;;;;;;99.00;89.68;;;;;;;6.93;100.00;102270.91;5123040;27;20468;-80
2021/10/10 00:28:18;;;;;;;99.47;89.95;;;;;;;6.86;100.00;102275.06;5121862;27;20051;-82
2021/10/10 00:30:45;;;;;;;96.30;87.40;;;;;;;6.87;100.00;102276.75;5124899;27;20047;-80
2021/10/10 00:33:12;;;;;;;87.88;79.78;;;;;;;6.87;100.00;102274.94;5121047;27;20036;-79
2021/10/10 00:35:39;;;;;;;88.55;80.78;;;;;;;6.91;100.00;102275.47;5121044;27;20112;-79
2021/10/10 00:38:06;;;;;;;91.05;82.45;;;;;;;6.95;100.00;102276.84;5116246;27;20484;-81
2021/10/10 00:40:34;;;;;;;89.63;81.65;;;;;;;6.82;100.00;102282.44;5124330;27;20441;-80
2021/10/10 00:43:01;;;;;;;88.55;79.88;;;;;;;6.74;100.00;102279.69;5125024;27;20456;-80
2021/10/10 00:45:27;;;;;;;83.82;74.97;;;;;;;6.77;100.00;102274.13;5124508;27;20122;-82
2021/10/10 00:47:54;;;;;;;86.05;78.00;;;;;;;6.85;100.00;102276.06;5123067;27;20051;-82
2021/10/10 00:50:21;;;;;;;87.43;79.22;;;;;;;6.83;100.00;102267.44;5115040;27;20516;-81
2021/10/10 00:52:50;;;;;;;84.93;77.05;;;;;;;6.79;100.00;102263.41;5116890;27;20196;-80
2021/10/10 00:55:20;;;;;;;84.47;76.70;;;;;;;6.76;100.00;102269.00;5108975;27;20043;-78
2021/10/10 00:57:51;;;;;;;68.97;62.13;;;;;;;6.68;100.00;102266.22;5119168;27;20160;-81
2021/10/10 01:00:20;;;;;;;77.72;70.75;;;;;;;6.59;100.00;102267.91;5115409;28;20458;-81
2021/10/10 01:02:50;;;;;;;84.78;76.45;;;;;;;6.58;100.00;102258.31;5119777;27;20075;-81
2021/10/10 01:05:17;;;;;;;82.68;74.78;;;;;;;6.74;100.00;102248.00;5125092;27;20043;-79
2021/10/10 01:07:45;;;;;;;82.22;74.47;;;;;;;6.63;100.00;102249.00;5119035;27;20115;-80
2021/10/10 01:10:13;;;;;;;74.10;67.00;;;;;;;6.75;100.00;102243.56;5118442;27;20417;-78
2021/10/10 01:12:41;;;;;;;79.60;71.90;;;;;;;6.65;100.00;102236.47;5124572;27;20065;-81
2021/10/10 01:15:10;;;;;;;76.57;69.30;;;;;;;6.68;100.00;102229.25;5122419;27;20047;-81
2021/10/10 01:17:37;;;;;;;80.25;72.88;;;;;;;6.77;100.00;102228.38;5115751;27;20101;-80
2021/10/10 01:20:06;;;;;;;73.60;66.40;;;;;;;6.67;100.00;102223.16;5114114;27;20040;-80
2021/10/10 01:22:35;;;;;;;73.15;66.13;;;;;;;6.65;100.00;102238.28;5111244;27;20047;-79
2021/10/10 01:25:02;;;;;;;67.35;60.10;;;;;;;6.62;100.00;102236.75;5113048;27;20387;-81
2021/10/10 01:27:29;;;;;;;70.13;62.95;;;;;;;6.62;100.00;102233.28;5118783;27;20453;-81
2021/10/10 01:29:55;;;;;;;62.05;56.10;;;;;;;6.54;100.00;102231.38;5118755;27;20464;-79
2021/10/10 01:32:22;;;;;;;66.68;59.75;;;;;;;6.50;100.00;102234.44;5123908;27;20109;-78
2021/10/10 01:34:49;;;;;;;70.70;62.08;;;;;;;6.46;100.00;102222.50;5115503;27;20052;-80
2021/10/10 01:37:17;;;;;;;68.30;61.40;;;;;;;6.53;100.00;102229.69;5118733;27;20035;-83
2021/10/10 01:39:45;;;;;;;60.90;54.65;;;;;;;6.49;100.00;102224.84;5121069;27;20565;-79
2021/10/10 01:42:12;;;;;;;68.70;61.83;;;;;;;6.43;100.00;102231.53;5115833;27;20076;-81
2021/10/10 01:44:39;;;;;;;67.22;60.17;;;;;;;6.72;100.00;102231.47;5116586;27;20116;-83
2021/10/10 01:47:05;;;;;;;68.65;61.30;;;;;;;6.51;100.00;102226.38;5122941;27;20429;-81
2021/10/10 01:49:32;;;;;;;66.97;60.63;;;;;;;6.37;100.00;102232.94;5115855;27;20052;-79
2021/10/10 01:51:59;;;;;;;73.10;65.90;;;;;;;6.45;100.00;102226.13;5110349;27;20048;-80
2021/10/10 01:54:26;;;;;;;69.65;62.63;;;;;;;6.36;100.00;102231.28;5115413;27;20038;-79
2021/10/10 01:56:54;;;;;;;71.18;64.18;;;;;;;6.36;100.00;102228.63;5118691;27;20058;-78
2021/10/10 01:59:20;;;;;;;71.88;64.72;;;;;;;6.33;100.00;102222.81;5117206;27;20104;-81
2021/10/10 02:01:47;;;;;;;77.47;70.22;;;;;;;6.35;100.00;102223.47;5166582;22;20123;-79
2021/10/10 02:04:14;;;;;;;70.95;63.42;;;;;;;6.31;100.00;102235.31;5000916;28;20057;-81
2021/10/10 02:06:41;;;;;;;76.32;67.95;;;;;;;6.34;100.00;102229.75;5002219;28;20042;-79
2021/10/10 02:09:07;;;;;;;76.22;68.38;;;;;;;6.41;100.00;102228.19;5003267;28;20046;-79
2021/10/10 02:11:34;;;;;;;70.78;63.83;;;;;;;6.23;100.00;102227.25;5000682;28;20131;-79
2021/10/10 02:14:02;;;;;;;71.18;64.32;;;;;;;6.24;100.00;102229.75;4999988;28;20454;-77
2021/10/10 02:16:29;;;;;;;72.57;65.32;;;;;;;6.18;100.00;102223.22;5009127;28;20049;-79
2021/10/10 02:18:56;;;;;;;70.22;63.38;;;;;;;6.18;100.00;102230.31;5004409;28;20050;-80
2021/10/10 02:21:22;;;;;;;81.45;74.20;;;;;;;6.20;100.00;102217.81;4995522;28;20050;-79
2021/10/10 02:23:50;;;;;;;74.35;67.13;;;;;;;6.54;100.00;102223.47;4999931;28;20060;-78
2021/10/10 02:26:17;;;;;;;67.70;60.88;;;;;;;6.16;100.00;102208.50;4999924;28;20521;-78
2021/10/10 02:28:43;;;;;;;72.43;65.25;;;;;;;6.17;100.00;102223.34;4999837;28;20050;-77
2021/10/10 02:31:12;;;;;;;63.38;56.92;;;;;;;6.26;100.00;102219.88;5008284;28;20111;-78
2021/10/10 02:33:38;;;;;;;68.53;61.15;;;;;;;6.32;100.00;102219.31;5004375;28;20050;-80
2021/10/10 02:36:05;;;;;;;73.65;66.00;;;;;;;6.07;100.00;102219.91;5008353;28;20442;-79
2021/10/10 02:38:32;;;;;;;71.88;65.43;;;;;;;6.10;100.00;102217.81;5007859;28;20057;-78
2021/10/10 02:40:58;;;;;;;65.97;59.38;;;;;;;6.04;100.00;102223.66;5004648;28;20046;-80
2021/10/10 02:43:25;;;;;;;72.05;65.03;;;;;;;5.97;100.00;102220.75;5007945;28;20050;-80
2021/10/10 02:45:52;;;;;;;73.80;66.53;;;;;;;5.89;100.00;102225.00;5007377;28;20105;-78
2021/10/10 02:48:20;;;;;;;70.72;63.72;;;;;;;6.03;100.00;102227.28;5005699;28;20108;-80
2021/10/10 02:50:47;;;;;;;64.82;59.00;;;;;;;6.12;100.00;102220.34;5006067;28;20049;-78
2021/10/10 02:53:13;;;;;;;73.47;67.05;;;;;;;6.05;100.00;102222.69;5001480;28;20112;-79
2021/10/10 02:55:40;;;;;;;70.95;64.40;;;;;;;6.03;100.00;102219.34;5008271;28;20046;-79
2021/10/10 02:58:07;;;;;;;67.63;61.05;;;;;;;6.01;100.00;102215.19;5004014;28;20046;-79
2021/10/10 03:00:34;;;;;;;66.97;60.35;;;;;;;5.99;100.00;102217.13;5007363;28;20383;-80
2021/10/10 03:03:00;;;;;;;69.15;62.47;;;;;;;5.94;100.00;102226.28;5011374;28;20057;-78
2021/10/10 03:05:28;;;;;;;69.00;62.20;;;;;;;6.02;100.00;102220.34;5008589;28;20112;-79
2021/10/10 03:07:55;;;;;;;75.45;68.30;;;;;;;6.10;100.00;102231.00;5000297;28;20525;-79
2021/10/10 03:10:22;;;;;;;75.55;68.95;;;;;;;6.03;100.00;102229.91;5008365;28;20120;-80
2021/10/10 03:12:49;;;;;;;76.00;68.88;;;;;;;5.89;100.00;102225.84;5007565;28;20054;-79
2021/10/10 03:15:15;;;;;;;70.60;63.78;;;;;;;5.91;100.00;102231.00;5011927;28;20107;-79
2021/10/10 03:17:42;;;;;;;68.13;62.03;;;;;;;5.89;100.00;102233.75;5003124;28;20377;-79
2021/10/10 03:20:10;;;;;;;68.45;61.97;;;;;;;5.82;100.00;102237.09;5006510;28;20050;-79
2021/10/10 03:22:38;;;;;;;71.50;64.82;;;;;;;5.83;100.00;102239.56;5008777;28;20120;-78
2021/10/10 03:25:05;;;;;;;72.22;65.95;;;;;;;5.84;100.00;102238.63;5006527;28;20115;-78
2021/10/10 03:27:32;;;;;;;77.30;68.35;;;;;;;5.91;100.00;102231.81;5003149;28;20927;-78
2021/10/10 03:29:59;;;;;;;68.85;61.92;;;;;;;5.85;100.00;102231.53;5007417;28;20511;-79
2021/10/10 03:32:26;;;;;;;69.50;62.22;;;;;;;5.92;100.00;102240.56;5011847;28;20530;-79
2021/10/10 03:34:52;;;;;;;70.38;63.33;;;;;;;6.02;100.00;102241.44;5012753;28;20541;-79
2021/10/10 03:37:19;;;;;;;66.93;60.05;;;;;;;5.91;100.00;102234.47;5007056;28;20541;-79
2021/10/10 03:39:47;;;;;;;67.90;61.33;;;;;;;6.02;100.00;102238.81;4998891;28;20499;-78
2021/10/10 03:44:43;;;;;;;74.25;67.20;;;;;;;6.02;100.00;102244.09;5033289;27;20406;-79
2021/10/10 03:47:12;;;;;;;69.80;63.05;;;;;;;5.95;100.00;102235.88;5051301;28;20114;-82
2021/10/10 03:49:39;;;;;;;71.45;65.32;;;;;;;5.98;100.00;102232.13;5049367;28;20140;-81
2021/10/10 03:52:07;;;;;;;83.00;75.53;;;;;;;6.11;100.00;102239.75;5028224;28;20045;-81
2021/10/10 03:55:09;;;;;;;76.03;69.00;;;;;;;6.06;100.00;102236.72;5047986;28;20449;-79
2021/10/10 03:57:35;;;;;;;71.30;64.40;;;;;;;5.93;100.00;102239.59;5041531;28;20089;-80
2021/10/10 04:00:07;;;;;;;63.30;57.28;;;;;;;5.95;100.00;102233.22;5048524;28;20049;-82
2021/10/10 04:02:34;;;;;;;67.35;60.63;;;;;;;5.97;100.00;102243.66;5043442;28;20071;-82
2021/10/10 04:05:03;;;;;;;68.47;61.75;;;;;;;5.94;100.00;102239.47;5037279;28;20441;-82
2021/10/10 04:07:29;;;;;;;65.82;58.75;;;;;;;5.92;100.00;102240.56;5035172;28;20041;-82
2021/10/10 04:09:56;;;;;;;74.80;68.05;;;;;;;6.05;100.00;102237.66;5037708;28;20045;-80
2021/10/10 04:12:23;;;;;;;77.47;68.03;;;;;;;5.91;100.00;102238.91;5041482;28;20053;-79
2021/10/10 04:14:50;;;;;;;78.03;71.15;;;;;;;6.00;100.00;102235.47;5043519;28;20489;-80
2021/10/10 04:17:18;;;;;;;65.85;59.67;;;;;;;6.00;100.00;102235.47;5043637;28;20057;-83
2021/10/10 04:19:45;;;;;;;67.15;60.40;;;;;;;5.90;100.00;102235.44;5041811;28;20065;-81
2021/10/10 04:22:11;;;;;;;71.10;64.05;;;;;;;6.15;100.00;102234.06;5044374;28;20461;-79
2021/10/10 04:24:38;;;;;;;61.53;56.08;;;;;;;5.91;100.00;102231.81;5043192;28;20116;-81
2021/10/10 04:27:05;;;;;;;61.90;55.40;;;;;;;5.98;100.00;102224.22;5041519;28;20045;-79
2021/10/10 04:29:31;;;;;;;60.58;54.20;;;;;;;5.98;100.00;102221.56;5042722;28;20187;-81
2021/10/10 04:31:58;;;;;;;62.22;55.58;;;;;;;5.96;100.00;102223.50;5042792;28;20111;-80
2021/10/10 04:34:26;;;;;;;65.15;58.63;;;;;;;5.93;100.00;102226.41;5040604;28;20061;-78
2021/10/10 04:36:53;;;;;;;59.00;53.10;;;;;;;5.93;100.00;102221.16;5043172;28;20057;-79
2021/10/10 04:39:20;;;;;;;57.38;51.47;;;;;;;5.84;100.00;102212.25;5036567;28;20123;-78
2021/10/10 04:41:47;;;;;;;60.35;54.40;;;;;;;5.96;100.00;102220.88;5042878;28;20049;-82
2021/10/10 04:44:14;;;;;;;60.13;53.97;;;;;;;5.91;100.00;102220.44;5040589;28;20053;-81
2021/10/10 04:46:41;;;;;;;60.35;54.45;;;;;;;5.91;100.00;102218.63;5037625;28;20062;-79
2021/10/10 04:49:08;;;;;;;58.75;53.15;;;;;;;5.86;100.00;102223.47;5038599;28;20057;-82
2021/10/10 04:51:36;;;;;;;62.80;56.70;;;;;;;5.86;100.00;102228.75;5041500;28;20053;-79
2021/10/10 04:54:03;;;;;;;59.50;53.65;;;;;;;5.83;100.00;102215.00;5034920;28;20106;-83
2021/10/10 04:56:29;;;;;;;61.17;54.78;;;;;;;5.97;100.00;102222.56;5026315;28;20054;-83
2021/10/10 04:58:56;;;;;;;59.90;54.10;;;;;;;6.07;100.00;102231.28;5030989;28;20053;-78
2021/10/10 05:01:23;;;;;;;63.50;57.80;;;;;;;6.13;100.00;102238.66;5023060;28;20116;-81
2021/10/10 05:03:49;;;;;;;58.30;52.78;;;;;;;6.06;100.00;102234.91;5016130;28;20097;-83
2021/10/10 05:06:16;;;;;;;66.43;60.38;;;;;;;6.07;100.00;102241.84;5029395;28;20049;-80
2021/10/10 05:08:44;;;;;;;61.85;56.33;;;;;;;6.07;100.00;102252.38;5023678;28;20528;-81
2021/10/10 05:11:11;;;;;;;58.40;52.22;;;;;;;6.28;100.00;102248.78;5029908;28;20045;-79
2021/10/10 05:13:38;;;;;;;57.50;51.60;;;;;;;6.24;100.00;102252.69;5023363;28;20111;-80
2021/10/10 05:16:05;;;;;;;58.67;53.42;;;;;;;6.24;100.00;102256.16;5030874;28;20050;-81
2021/10/10 05:21:54;;;;;;;56.60;51.55;;;;;;;6.23;100.00;102251.81;5018221;28;20068;-82
2021/10/10 05:24:22;;;;;;;58.40;52.50;;;;;;;6.37;100.00;102246.13;5028712;28;20052;-80
2021/10/10 05:26:48;;;;;;;59.70;54.08;;;;;;;6.29;100.00;102245.97;5022668;28;20045;-81
2021/10/10 05:29:15;;;;;;;56.88;51.55;;;;;;;6.20;100.00;102246.81;5026939;28;20053;-81
2021/10/10 05:31:42;;;;;;;55.40;49.70;;;;;;;6.23;100.00;102246.53;5022703;28;20476;-80
2021/10/10 05:34:09;;;;;;;56.08;50.20;;;;;;;6.31;100.00;102251.97;5022371;28;20045;-81
2021/10/10 05:36:36;;;;;;;53.65;48.67;;;;;;;6.35;100.00;102248.06;5022035;28;20087;-81
2021/10/10 05:39:03;;;;;;;54.35;48.65;;;;;;;6.29;100.00;102251.25;5028772;28;20045;-79
2021/10/10 05:41:31;;;;;;;55.45;49.70;;;;;;;6.36;100.00;102236.56;5024774;28;20115;-79
2021/10/10 05:43:57;;;;;;;53.10;48.17;;;;;;;6.23;100.00;102245.72;5023859;28;20104;-79
2021/10/10 05:46:24;;;;;;;52.80;47.60;;;;;;;6.25;100.00;102249.06;5024493;28;20060;-83
2021/10/10 05:48:51;;;;;;;52.83;47.65;;;;;;;6.39;100.00;102248.63;5031950;28;20048;-79
2021/10/10 05:51:18;;;;;;;50.83;46.42;;;;;;;6.60;100.00;102249.28;5021396;28;20053;-82
2021/10/10 05:53:44;;;;;;;50.30;45.67;;;;;;;6.38;100.00;102257.50;5029882;28;20448;-78
2021/10/10 05:56:11;;;;;;;52.03;47.38;;;;;;;6.57;100.00;102254.84;5021637;28;20115;-81
2021/10/10 05:58:43;;;;;;;55.35;49.67;;;;;;;6.51;100.00;102258.06;5030675;28;20053;-81
2021/10/10 06:01:09;;;;;;;55.47;49.93;;;;;;;6.45;100.00;102257.81;5022819;28;20053;-81
2021/10/10 06:03:37;;;;;;;48.58;44.20;;;;;;;6.43;100.00;102250.84;5021374;28;20046;-81
2021/10/10 06:06:07;;;;;;;49.47;44.95;;;;;;;6.48;100.00;102258.34;5029228;28;20111;-78
2021/10/10 06:08:34;;;;;;;49.85;44.92;;;;;;;6.66;100.00;102266.38;5026980;28;20049;-80
2021/10/10 06:11:01;;;;;;;50.97;45.83;;;;;;;6.58;100.00;102264.44;5024421;28;20478;-80
2021/10/10 06:13:27;;;;;;;50.35;45.33;;;;;;;6.74;100.00;102271.75;5025332;28;20041;-81
2021/10/10 06:15:56;;;;;;;50.00;44.67;;;;;;;6.70;100.00;102267.75;5025943;28;20429;-79
2021/10/10 06:18:23;;;;;;;47.88;43.25;;;;;;;6.59;100.00;102259.97;5027751;28;20394;-83
2021/10/10 06:20:50;;;;;;;48.13;43.92;;;;;;;6.77;100.00;102266.19;5020889;28;20061;-80
2021/10/10 06:23:16;;;;;;;47.22;42.58;;;;;;;6.92;100.00;102271.03;5028348;28;20139;-81
2021/10/10 06:25:43;;;;;;;44.33;40.10;;;;;;;6.72;100.00;102271.09;5027291;28;20095;-81
2021/10/10 06:28:10;;;;;;;48.22;43.38;;;;;;;6.75;100.00;102275.25;5025393;28;20425;-79
2021/10/10 06:30:37;;;;;;;47.70;43.45;;;;;;;6.73;100.00;102270.09;5022744;28;20113;-82
2021/10/10 06:33:05;;;;;;;48.25;43.45;;;;;;;6.78;100.00;102272.34;5029408;28;20103;-79
2021/10/10 06:35:32;;;;;;;45.47;40.70;;;;;;;6.73;100.00;102274.56;5023268;28;20061;-82
2021/10/10 06:37:58;;;;;;;52.55;47.45;;;;;;;11.69;100.00;102262.88;5031629;28;20796;-79
2021/10/10 06:40:26;;;;;;;43.55;38.97;;;;;;;8.00;100.00;102272.97;5024124;28;20049;-78
2021/10/10 06:42:52;;;;;;;43.50;39.53;;;;;;;8.01;100.00;102270.16;5021447;28;20560;-79
2021/10/10 06:45:19;;;;;;;51.50;42.95;;;;;;;7.38;100.00;102277.22;5023830;28;20038;-78
2021/10/10 06:47:46;;;;;;;48.13;43.38;;;;;;;7.24;100.00;102276.75;5021028;28;20058;-80
2021/10/10 06:50:14;;;;;;;47.75;43.15;;;;;;;7.28;100.00;102277.28;5023884;28;20096;-80
2021/10/10 06:52:41;;;;;;;44.88;40.08;;;;;;;7.01;100.00;102273.63;5026511;28;20046;-80
2021/10/10 06:55:08;;;;;;;46.22;41.92;;;;;;;7.02;100.00;102270.03;5022426;28;20045;-80
2021/10/10 06:57:35;;;;;;;47.40;42.40;;;;;;;7.31;100.00;102266.41;5021869;28;20050;-78
2021/10/10 07:00:02;;;;;;;45.17;40.70;;;;;;;7.64;100.00;102264.16;5020341;28;20107;-79
2021/10/10 07:02:29;;;;;;;41.95;38.35;;;;;;;7.13;100.00;102258.44;5023247;28;20102;-78
2021/10/10 07:04:56;;;;;;;44.50;40.33;;;;;;;7.34;100.00;102260.84;5026813;28;20084;-80
2021/10/10 07:07:25;;;;;;;44.13;39.67;;;;;;;7.49;100.00;102255.88;5022282;28;20593;-78
2021/10/10 07:09:52;;;;;;;46.50;41.85;;;;;;;7.49;100.00;102258.53;5021180;28;20493;-80
2021/10/10 07:12:18;;;;;;;79.63;52.17;;;;;;;7.46;100.00;102258.84;5020203;28;20050;-79
2021/10/10 07:14:47;;;;;;;61.20;54.80;;;;;;;7.59;100.00;102251.38;5020360;28;20038;-78
2021/10/10 07:17:15;;;;;;;64.38;57.35;;;;;;;7.58;100.00;102249.72;5021810;28;20058;-81
2021/10/10 07:19:45;;;;;;;62.97;56.40;;;;;;;7.87;100.00;102254.81;5021911;28;20056;-80
2021/10/10 07:22:26;;;;;;;62.08;55.80;;;;;;;7.89;100.00;102255.47;5029140;28;20041;-78
2021/10/10 07:24:57;;;;;;;65.65;58.33;;;;;;;8.24;100.00;102252.00;5021249;28;20473;-79
2021/10/10 07:27:24;;;;;;;66.45;60.05;;;;;;;7.93;100.00;102256.03;5020423;28;20042;-79
2021/10/10 07:29:51;;;;;;;63.35;57.47;;;;;;;7.82;100.00;102248.31;5019967;28;20114;-78
2021/10/10 07:32:17;;;;;;;65.13;58.45;;;;;;;8.16;100.00;102246.63;5021509;28;20049;-80
2021/10/10 07:34:44;;;;;;;65.97;59.47;;;;;;;8.28;100.00;102252.50;5020928;28;20054;-80
2021/10/10 07:37:11;;;;;;;65.60;58.97;;;;;;;9.08;100.00;102255.06;5020719;28;20103;-81
2021/10/10 07:39:38;;;;;;;66.32;59.90;;;;;;;8.80;100.00;102257.88;5019686;28;20107;-79
2021/10/10 07:42:06;;;;;;;69.22;61.80;;;;;;;8.27;100.00;102251.69;5020000;28;20046;-80
2021/10/10 07:44:33;;;;;;;70.13;62.90;;;;;;;8.34;100.00;102249.25;5021098;28;20062;-78
2021/10/10 07:47:15;;;;;;;64.72;58.38;;;;;;;8.39;100.00;102254.13;5021602;28;20116;-78
2021/10/10 07:49:42;;;;;;;65.80;59.30;;;;;;;8.76;100.00;102255.72;5021745;28;20553;-78
2021/10/10 07:52:08;;;;;;;65.60;58.75;;;;;;;8.66;100.00;102255.81;5025811;28;20457;-80
2021/10/10 07:54:35;;;;;;;64.70;58.42;;;;;;;9.14;100.00;102247.31;5019455;28;20112;-79
2021/10/10 07:57:02;;;;;;;61.17;54.85;;;;;;;8.32;100.00;102250.38;5029093;28;20041;-80
2021/10/10 07:59:30;;;;;;;61.67;55.60;;;;;;;8.57;100.00;102243.50;5033416;28;20056;-78
2021/10/10 08:01:57;;;;;;;60.83;55.13;;;;;;;8.92;100.00;102251.31;5039217;28;20056;-78
2021/10/10 08:04:25;;;;;;;61.50;55.28;;;;;;;9.04;100.00;102253.69;5030023;28;20127;-80
2021/10/10 08:06:52;;;;;;;63.95;57.92;;;;;;;8.74;100.00;102242.59;5028043;28;20474;-81
2021/10/10 08:09:19;;;;;;;63.95;57.35;;;;;;;9.03;100.00;102244.91;5028881;28;20107;-79
2021/10/10 08:11:46;;;;;;;60.35;54.65;;;;;;;9.27;100.00;102238.06;5021382;28;20106;-80
2021/10/10 08:14:14;;;;;;;62.83;56.03;;;;;;;9.50;100.00;102230.34;5030123;28;20041;-80
2021/10/10 08:16:43;;;;;;;62.65;56.40;;;;;;;9.77;100.00;102230.09;5021707;28;20571;-80
2021/10/10 08:19:11;;;;;;;61.58;55.40;;;;;;;9.16;100.00;102225.91;5028943;28;20115;-77
2021/10/10 08:21:38;;;;;;;61.50;55.55;;;;;;;9.22;100.00;102222.63;5027116;28;20057;-78
2021/10/10 08:24:05;;;;;;;61.97;55.95;;;;;;;9.03;100.00;102222.91;5019499;28;20478;-79
2021/10/10 08:26:33;;;;;;;61.58;54.97;;;;;;;9.61;100.00;102225.56;5029113;28;20038;-79
2021/10/10 08:29:00;;;;;;;63.28;56.78;;;;;;;9.25;100.00;102232.91;5024400;28;20041;-79
2021/10/10 08:31:27;;;;;;;64.40;57.92;;;;;;;9.68;100.00;102227.56;5031103;28;20057;-81
2021/10/10 08:33:55;;;;;;;62.70;56.75;;;;;;;9.12;100.00;102228.06;5030556;28;20115;-79
2021/10/10 08:36:22;;;;;;;63.80;57.50;;;;;;;9.78;100.00;102228.25;5033795;28;20104;-78
2021/10/10 08:38:49;;;;;;;61.95;56.10;;;;;;;9.69;100.00;102226.59;5028937;28;20111;-78
2021/10/10 08:41:20;;;;;;;63.80;57.53;;;;;;;10.62;100.00;102229.75;5023120;28;20054;-80
2021/10/10 08:43:48;;;;;;;57.60;51.80;;;;;;;10.12;100.00;102222.78;5027533;28;20172;-80
2021/10/10 08:46:22;;;;;;;61.92;56.05;;;;;;;9.68;100.00;102217.78;5024197;28;20106;-81
2021/10/10 08:48:49;;;;;;;66.18;59.67;;;;;;;9.58;100.00;102228.53;5029236;28;20462;-79
2021/10/10 08:51:17;;;;;;;64.70;57.83;;;;;;;10.12;100.00;102219.31;5033893;28;20045;-79
2021/10/10 08:53:44;;;;;;;66.88;58.50;;;;;;;9.76;100.00;102224.94;5035254;28;20046;-78
2021/10/10 08:56:11;;;;;;;77.32;60.35;;;;;;;9.93;100.00;102223.13;5024484;28;20096;-77
2021/10/10 08:58:42;;;;;;;65.63;59.10;;;;;;;10.17;100.00;102224.97;5027416;28;20420;-78
2021/10/10 09:01:15;;;;;;;63.47;57.10;;;;;;;10.43;100.00;102222.13;5024349;28;20054;-78
2021/10/10 09:03:47;;;;;;;61.38;55.22;;;;;;;10.49;100.00;102219.63;5031685;28;20088;-80
2021/10/10 09:06:14;;;;;;;61.00;54.90;;;;;;;10.44;100.00;102227.31;5025159;28;20529;-79
2021/10/10 09:08:42;;;;;;;61.35;55.40;;;;;;;10.49;100.00;102224.94;5030505;28;20184;-80
2021/10/10 09:11:10;;;;;;;63.00;56.00;;;;;;;10.43;100.00;102228.28;5030056;28;20111;-80
2021/10/10 09:13:40;;;;;;;62.78;56.78;;;;;;;10.45;100.00;102228.94;5022386;28;20053;-80
2021/10/10 09:16:08;;;;;;;61.10;55.22;;;;;;;10.27;100.00;102221.16;5028377;28;20041;-80
2021/10/10 09:18:38;;;;;;;62.42;55.92;;;;;;;10.47;100.00;102224.31;5025542;28;20053;-81
2021/10/10 09:21:19;;;;;;;62.90;56.78;;;;;;;10.55;100.00;102215.47;5021740;28;20486;-79
2021/10/10 09:23:49;;;;;;;60.85;55.08;;;;;;;10.81;100.00;102219.75;5029830;28;20053;-78
2021/10/10 09:26:17;;;;;;;64.70;58.15;;;;;;;10.62;100.00;102224.44;5022178;28;20111;-79
2021/10/10 09:28:45;;;;;;;66.28;59.28;;;;;;;10.75;100.00;102213.28;5021504;28;20041;-79
2021/10/10 09:31:12;;;;;;;63.97;57.38;;;;;;;10.84;100.00;102209.59;5021748;28;20053;-78
2021/10/10 09:33:41;;;;;;;65.45;58.03;;;;;;;10.86;100.00;102206.75;5017577;28;20054;-80
2021/10/10 09:36:16;;;;;;;62.15;56.17;;;;;;;11.10;100.00;102217.28;5020357;28;20042;-81
2021/10/10 09:38:46;;;;;;;66.03;59.08;;;;;;;11.41;100.00;102212.00;5026242;28;20053;-79
2021/10/10 09:41:24;;;;;;;63.78;56.83;;;;;;;11.18;100.00;102219.09;5023539;28;20042;-77
2021/10/10 09:44:14;;;;;;;38.90;35.55;;;;;;;11.31;100.00;102221.19;5029051;28;20049;-77
2021/10/10 09:46:43;;;;;;;39.78;35.42;;;;;;;11.24;100.00;102219.22;5019076;28;20056;-77
2021/10/10 09:49:25;;;;;;;40.30;35.55;;;;;;;11.05;100.00;102218.84;5030352;28;20142;-78
2021/10/10 09:51:52;;;;;;;37.90;34.60;;;;;;;11.18;100.00;102214.59;5023667;28;20056;-79
2021/10/10 09:54:19;;;;;;;40.53;36.45;;;;;;;11.70;100.00;102223.78;5023581;28;20115;-79
2021/10/10 09:57:06;;;;;;;39.97;36.47;;;;;;;11.83;100.00;102225.84;5027322;28;20056;-79
2021/10/10 09:59:33;;;;;;;50.58;35.88;;;;;;;11.91;100.00;102226.66;5040603;28;20123;-79
2021/10/10 10:02:00;;;;;;;42.17;34.97;;;;;;;11.59;100.00;102227.69;5025948;28;20111;-78
2021/10/10 10:04:27;;;;;;;41.75;37.35;;;;;;;11.41;100.00;102217.31;5028417;28;20065;-79
2021/10/10 10:06:54;;;;;;;40.45;36.45;;;;;;;12.37;100.00;102215.13;5025812;28;20041;-83
2021/10/10 10:09:21;;;;;;;39.20;35.05;;;;;;;12.15;100.00;102212.31;5026911;28;20049;-76
2021/10/10 10:11:48;;;;;;;39.13;35.38;;;;;;;12.20;100.00;102214.47;5023709;28;20049;-78
2021/10/10 10:14:18;;;;;;;39.50;35.28;;;;;;;12.36;100.00;102214.31;5028728;28;20053;-79
2021/10/10 10:16:47;;;;;;;39.88;35.80;;;;;;;12.28;100.00;102213.53;5025437;28;20119;-77
2021/10/10 10:19:16;;;;;;;38.95;34.97;;;;;;;12.09;100.00;102212.22;5029416;28;20050;-79
2021/10/10 10:21:44;;;;;;;39.10;35.65;;;;;;;11.89;100.00;102222.53;5015310;28;20107;-78
2021/10/10 10:24:13;;;;;;;38.67;34.78;;;;;;;11.86;100.00;102210.41;5023501;28;20053;-79
2021/10/10 10:26:40;;;;;;;39.15;35.28;;;;;;;12.22;100.00;102212.44;5022642;28;20112;-78
2021/10/10 10:29:12;;;;;;;42.83;35.08;;;;;;;13.06;100.00;102205.03;5026769;28;20429;-80
2021/10/10 10:31:44;;;;;;;37.42;33.22;;;;;;;12.22;100.00;102208.94;5028236;28;20057;-77
2021/10/10 10:34:21;;;;;;;39.45;35.50;;;;;;;12.77;100.00;102208.56;5020461;28;20054;-79
2021/10/10 10:36:56;;;;;;;40.15;35.90;;;;;;;12.27;100.00;102203.91;5031853;28;20477;-78
2021/10/10 10:39:44;;;;;;;39.90;35.72;;;;;;;12.36;100.00;102200.16;5023774;28;20046;-78
2021/10/10 10:42:12;;;;;;;39.83;36.08;;;;;;;12.43;100.00;102203.75;5015126;28;20080;-78
2021/10/10 10:44:45;;;;;;;39.97;35.80;;;;;;;12.33;100.00;102197.84;5026537;28;20120;-79
2021/10/10 10:47:15;;;;;;;39.35;35.88;;;;;;;12.15;100.00;102207.00;5023457;28;20042;-79
2021/10/10 10:50:01;;;;;;;40.40;36.30;;;;;;;12.38;100.00;102198.97;5026007;28;20050;-79
2021/10/10 10:52:31;;;;;;;40.53;36.58;;;;;;;13.04;100.00;102198.22;5015822;28;20057;-81
2021/10/10 10:54:59;;;;;;;40.20;36.42;;;;;;;12.86;100.00;102195.97;5023881;28;20050;-79
2021/10/10 10:57:34;;;;;;;40.72;36.67;;;;;;;12.32;100.00;102194.38;5033590;28;20095;-78
2021/10/10 11:00:05;;;;;;;41.03;37.38;;;;;;;12.67;100.00;102199.16;5028879;28;20107;-79
2021/10/10 11:03:00;;;;;;;41.05;37.40;;;;;;;12.70;100.00;102182.81;5031303;28;20078;-78
2021/10/10 11:05:32;;;;;;;41.83;37.70;;;;;;;12.56;100.00;102181.81;5031581;28;20524;-78
2021/10/10 11:08:00;;;;;;;40.47;36.17;;;;;;;12.56;100.00;102174.63;5028933;28;20054;-79
2021/10/10 11:10:27;;;;;;;42.03;36.53;;;;;;;12.63;100.00;102179.22;5027697;28;20119;-78
2021/10/10 11:12:56;;;;;;;40.72;36.40;;;;;;;12.51;100.00;102177.00;5028715;28;20052;-78
2021/10/10 11:15:23;;;;;;;40.65;36.58;;;;;;;13.44;100.00;102166.72;5024453;28;20137;-79
2021/10/10 11:18:01;;;;;;;40.42;36.70;;;;;;;13.00;100.00;102171.09;5030200;28;20045;-79